createdAt,value
2019-01-20T00:08:14.802Z,22.03
2019-01-20T00:14:10.095Z,22.80
2019-01-20T00:22:44.901Z,22.10
2019-01-20T00:33:55.753Z,26.10
2019-01-20T00:36:46.095Z,24.87
2019-01-20T00:45:15.166Z,25.80
2019-01-20T00:50:31.772Z,24.40
2019-01-20T00:53:22.367Z,25.10
2019-01-20T00:59:07.236Z,24.27
2019-01-20T01:04:40.835Z,24.47
2019-01-20T01:07:31.423Z,25.40
2019-01-20T01:16:09.909Z,26.60
2019-01-20T01:19:19.591Z,27.37
2019-01-20T01:22:10.186Z,26.50
2019-01-20T01:25:00.822Z,28.13
2019-01-20T01:36:04.111Z,26.73
2019-01-20T01:44:22.083Z,25.63
2019-01-20T01:50:17.191Z,24.97
2019-01-20T01:55:51.219Z,27.53
2019-01-20T01:58:22.463Z,28.03
2019-01-20T02:01:13.080Z,28.00
2019-01-20T02:04:03.697Z,29.20
2019-01-20T02:06:54.347Z,29.00
2019-01-20T02:09:44.961Z,29.60
2019-01-20T02:12:55.110Z,28.30
2019-01-20T02:18:29.429Z,28.20
2019-01-20T02:21:11.371Z,30.90
2019-01-20T02:29:10.805Z,29.87
2019-01-20T02:32:01.428Z,29.80
2019-01-20T02:34:52.025Z,30.60
2019-01-20T02:40:28.334Z,27.23
2019-01-20T02:43:18.906Z,30.07
2019-01-20T02:46:28.647Z,28.97
2019-01-20T02:49:19.211Z,30.60
2019-01-20T03:00:46.015Z,30.10
2019-01-20T03:12:11.804Z,29.70
2019-01-20T03:14:49.669Z,29.40
2019-01-20T03:17:59.577Z,30.93
2019-01-20T03:23:34.555Z,28.33
2019-01-20T03:29:09.565Z,30.40
2019-01-20T03:32:00.123Z,28.80
2019-01-20T03:37:52.641Z,30.93
2019-01-20T03:40:43.221Z,28.50
2019-01-20T03:49:00.520Z,30.90
2019-01-20T03:51:51.099Z,29.50
2019-01-20T03:54:41.695Z,29.93
2019-01-20T03:57:51.732Z,28.20
2019-01-20T04:00:50.791Z,29.40
2019-01-20T04:06:44.904Z,30.33
2019-01-20T04:12:20.890Z,32.87
2019-01-20T04:15:01.435Z,32.20
2019-01-20T04:17:52.054Z,29.63
2019-01-20T04:20:42.640Z,31.30
2019-01-20T04:23:33.228Z,29.47
2019-01-20T04:26:23.790Z,31.30
2019-01-20T04:29:14.421Z,29.60
2019-01-20T04:32:05.028Z,29.20
2019-01-20T04:37:44.223Z,27.93
2019-01-20T04:40:34.845Z,27.13
2019-01-20T04:43:25.448Z,24.17
2019-01-20T04:59:55.981Z,23.57
2019-01-20T05:02:46.618Z,22.50
2019-01-20T05:05:37.260Z,24.40
2019-01-20T05:11:12.383Z,24.00
2019-01-20T05:13:43.584Z,24.63
2019-01-20T05:21:40.137Z,22.13
2019-01-20T05:24:30.710Z,22.80
2019-01-20T05:27:21.357Z,22.40
2019-01-20T05:30:24.034Z,21.90
2019-01-20T05:35:41.193Z,20.70
2019-01-20T05:38:31.727Z,21.23
2019-01-20T05:41:22.367Z,20.13
2019-01-20T05:44:13.285Z,21.10
2019-01-20T05:47:03.853Z,20.00
2019-01-20T05:49:54.434Z,20.57
2019-01-20T05:58:13.249Z,21.00
2019-01-20T06:01:22.956Z,20.53
2019-01-20T06:04:13.576Z,19.40
2019-01-20T06:07:04.366Z,19.10
2019-01-20T06:09:55.022Z,18.87
2019-01-20T06:12:53.631Z,19.73
2019-01-20T06:15:28.486Z,20.37
2019-01-20T06:18:19.100Z,19.70
2019-01-20T06:23:53.271Z,19.87
2019-01-20T06:27:03.008Z,21.73
2019-01-20T06:29:53.648Z,18.83
2019-01-20T06:38:51.287Z,19.83
2019-01-20T06:47:09.029Z,20.83
2019-01-20T06:49:59.712Z,20.17
2019-01-20T07:04:24.666Z,20.17
2019-01-20T07:07:15.309Z,18.93
2019-01-20T07:10:15.279Z,19.30
2019-01-20T07:13:10.108Z,19.67
2019-01-20T07:21:34.709Z,21.90
2019-01-20T07:32:43.942Z,19.80
2019-01-20T07:35:34.575Z,19.87
2019-01-20T07:41:07.616Z,19.70
2019-01-20T07:44:08.247Z,21.50
2019-01-20T07:52:12.261Z,20.33
2019-01-20T07:58:24.686Z,22.07
2019-01-20T08:01:15.260Z,20.70
2019-01-20T08:16:20.220Z,21.33
2019-01-20T08:27:20.849Z,20.80
2019-01-20T08:30:23.414Z,21.07
2019-01-20T08:33:26.386Z,22.17
2019-01-20T08:35:59.932Z,22.07
2019-01-20T08:38:31.163Z,21.60
2019-01-20T08:41:21.736Z,20.33
2019-01-20T08:47:51.812Z,21.17
2019-01-20T08:50:23.479Z,21.87
2019-01-20T08:53:14.059Z,22.27
2019-01-20T09:04:29.068Z,21.70
2019-01-20T09:07:01.005Z,23.20
2019-01-20T09:09:51.587Z,22.10
2019-01-20T09:15:37.865Z,22.20
2019-01-20T09:18:11.648Z,20.47
2019-01-20T09:24:04.224Z,20.90
2019-01-20T09:32:21.248Z,21.53
2019-01-20T09:35:31.005Z,23.07
2019-01-20T09:41:05.218Z,20.70
2019-01-20T09:43:47.588Z,21.43
2019-01-20T09:46:29.968Z,19.83
2019-01-20T09:49:01.235Z,20.17
2019-01-20T09:51:51.814Z,21.07
2019-01-20T09:54:42.462Z,19.80
2019-01-20T09:57:52.535Z,22.47
2019-01-20T10:03:26.340Z,19.60
2019-01-20T10:05:57.649Z,21.23
2019-01-20T10:08:48.239Z,19.03
2019-01-20T10:11:38.915Z,20.40
2019-01-20T10:14:29.542Z,20.67
2019-01-20T10:17:21.039Z,18.60
2019-01-20T10:23:31.602Z,19.30
2019-01-20T10:26:04.522Z,20.53
2019-01-20T10:31:37.650Z,21.30
2019-01-20T10:37:13.580Z,20.07
2019-01-20T10:40:15.753Z,20.93
2019-01-20T10:42:48.523Z,19.43
2019-01-20T10:48:21.713Z,20.60
2019-01-20T10:51:12.345Z,24.70
2019-01-20T10:54:02.987Z,20.07
2019-01-20T10:56:53.590Z,20.60
2019-01-20T11:05:24.866Z,18.67
2019-01-20T11:07:57.535Z,18.43
2019-01-20T11:10:48.139Z,20.37
2019-01-20T11:13:38.811Z,18.23
2019-01-20T11:22:15.575Z,18.20
2019-01-20T11:25:18.148Z,18.50
2019-01-20T11:36:01.851Z,17.73
2019-01-20T11:38:52.519Z,17.67
2019-01-20T11:41:43.108Z,18.73
2019-01-20T11:44:52.806Z,19.27
2019-01-20T11:48:02.539Z,20.20
2019-01-20T11:50:53.176Z,19.30
2019-01-20T11:53:44.054Z,19.67
2019-01-20T11:56:34.768Z,19.63
2019-01-20T11:59:36.487Z,20.73
2019-01-20T12:02:09.926Z,19.43
2019-01-20T12:05:00.606Z,19.83
2019-01-20T12:07:51.215Z,18.60
2019-01-20T12:10:41.885Z,19.63
2019-01-20T12:13:51.610Z,20.30
2019-01-20T12:16:44.515Z,19.07
2019-01-20T12:22:17.910Z,18.63
2019-01-20T12:25:20.420Z,20.57
2019-01-20T12:31:07.489Z,21.10
2019-01-20T12:33:40.109Z,20.43
2019-01-20T12:36:30.902Z,20.03
2019-01-20T12:39:40.480Z,19.97
2019-01-20T12:45:26.488Z,21.47
2019-01-20T12:47:58.018Z,19.10
2019-01-20T12:50:48.619Z,18.87
2019-01-20T12:53:39.240Z,19.50
2019-01-20T12:56:48.888Z,20.63
2019-01-20T12:59:39.487Z,19.90
2019-01-20T13:02:30.091Z,20.40
2019-01-20T13:05:01.402Z,22.80
2019-01-20T13:07:52.009Z,22.20
2019-01-20T13:10:35.684Z,22.80
2019-01-20T13:13:26.286Z,22.83
2019-01-20T13:16:16.945Z,22.70
2019-01-20T13:21:53.029Z,22.10
2019-01-20T13:24:24.309Z,23.53
2019-01-20T13:27:14.906Z,23.77
2019-01-20T13:30:17.467Z,22.37
2019-01-20T13:33:08.069Z,23.73
2019-01-20T13:41:44.919Z,21.80
2019-01-20T13:47:00.184Z,22.50
2019-01-20T13:58:44.398Z,24.00
2019-01-20T14:04:18.339Z,22.60
2019-01-20T14:07:27.870Z,24.93
2019-01-20T14:10:30.381Z,22.77
2019-01-20T14:15:46.475Z,23.53
2019-01-20T14:18:37.161Z,23.10
2019-01-20T14:24:10.665Z,22.30
2019-01-20T14:29:45.570Z,22.40
2019-01-20T14:33:14.651Z,22.27
2019-01-20T14:44:39.780Z,23.27
2019-01-20T14:47:21.594Z,22.73
2019-01-20T14:50:19.056Z,23.43
2019-01-20T14:58:43.595Z,22.00
2019-01-20T15:01:34.193Z,23.17
2019-01-20T15:04:25.551Z,20.50
2019-01-20T15:06:57.633Z,22.87
2019-01-20T15:09:28.910Z,20.57
2019-01-20T15:12:19.590Z,22.50
2019-01-20T15:15:30.343Z,23.47
2019-01-20T15:18:14.022Z,22.10
2019-01-20T15:21:04.650Z,21.17
2019-01-20T15:23:55.643Z,21.00
2019-01-20T15:26:57.265Z,21.57
2019-01-20T15:29:30.726Z,23.00
2019-01-20T15:32:21.381Z,24.13
2019-01-20T15:35:31.094Z,21.37
2019-01-20T15:38:02.388Z,21.53
2019-01-20T15:40:53.028Z,21.40
2019-01-20T15:46:48.230Z,21.00
2019-01-20T15:49:48.762Z,20.80
2019-01-20T15:52:20.798Z,21.07
2019-01-20T15:55:23.082Z,21.40
2019-01-20T15:57:56.848Z,19.83
2019-01-20T16:00:47.528Z,19.60
2019-01-20T16:03:38.184Z,19.13
2019-01-20T16:09:12.714Z,19.30
2019-01-20T16:11:44.034Z,20.70
2019-01-20T16:14:34.675Z,21.00
2019-01-20T16:20:16.951Z,21.70
2019-01-20T16:28:39.111Z,19.67
2019-01-20T16:31:29.846Z,19.37
2019-01-20T16:34:40.094Z,21.30
2019-01-20T16:43:31.143Z,18.70
2019-01-20T16:49:09.778Z,20.67
2019-01-20T16:52:00.369Z,19.77
2019-01-20T16:54:53.541Z,21.93
2019-01-20T16:57:44.179Z,22.23
2019-01-20T17:03:40.202Z,18.60
2019-01-20T17:06:50.269Z,18.37
2019-01-20T17:12:24.704Z,17.70
2019-01-20T17:15:28.016Z,18.40
2019-01-20T17:18:02.585Z,18.67
2019-01-20T17:23:38.440Z,19.07
2019-01-20T17:26:29.108Z,18.70
2019-01-20T17:29:19.719Z,18.40
2019-01-20T17:32:10.305Z,18.80
2019-01-20T17:35:01.576Z,18.77
2019-01-20T17:38:11.908Z,17.60
2019-01-20T17:41:08.749Z,17.63
2019-01-20T17:43:59.424Z,19.90
2019-01-20T17:46:50.603Z,19.33
2019-01-20T17:50:00.790Z,19.97
2019-01-20T17:52:51.397Z,20.43
2019-01-20T17:55:42.499Z,21.93
2019-01-20T17:58:33.261Z,21.13
2019-01-20T18:01:24.613Z,24.60
2019-01-20T18:04:21.008Z,20.40
2019-01-20T18:07:23.174Z,20.37
2019-01-20T18:09:56.381Z,19.67
2019-01-20T18:12:47.201Z,24.47
2019-01-20T18:15:38.397Z,21.57
2019-01-20T18:18:21.341Z,20.80
2019-01-20T18:21:18.384Z,21.80
2019-01-20T18:26:59.836Z,21.77
2019-01-20T18:30:16.909Z,21.30
2019-01-20T18:33:12.770Z,20.63
2019-01-20T18:36:09.693Z,21.40
2019-01-20T18:41:44.659Z,23.70
2019-01-20T18:47:38.641Z,30.40
2019-01-20T18:50:31.305Z,22.40
2019-01-20T18:53:02.648Z,20.37
2019-01-20T18:58:36.772Z,21.73
2019-01-20T19:01:37.462Z,18.77
2019-01-20T19:04:11.959Z,17.83
2019-01-20T19:07:03.271Z,17.97
2019-01-20T19:09:55.919Z,20.13
2019-01-20T19:18:39.595Z,19.67
2019-01-20T19:21:30.178Z,23.80
2019-01-20T19:30:45.798Z,19.57
2019-01-20T19:33:17.168Z,20.17
2019-01-20T19:35:48.417Z,19.93
2019-01-20T19:41:23.114Z,21.68
2019-01-20T19:44:13.688Z,22.13
2019-01-20T19:49:46.947Z,20.40
2019-01-20T19:52:56.964Z,22.53
2019-01-20T19:55:47.555Z,20.30
2019-01-20T19:58:38.134Z,19.97
2019-01-20T20:01:30.953Z,19.20
2019-01-20T20:06:56.929Z,20.20
2019-01-20T20:15:59.952Z,20.40
2019-01-20T20:19:01.468Z,19.67
2019-01-20T20:21:44.287Z,20.70
2019-01-20T20:24:37.364Z,21.17
2019-01-20T20:30:23.407Z,20.50
2019-01-20T20:32:54.658Z,21.40
2019-01-20T20:35:45.318Z,20.53
2019-01-20T20:38:35.926Z,22.33
2019-01-20T20:41:26.529Z,23.30
2019-01-20T20:47:00.084Z,20.50
2019-01-20T20:52:56.020Z,22.40
2019-01-20T20:58:48.867Z,21.03
2019-01-20T21:04:22.224Z,20.50
2019-01-20T21:06:53.459Z,20.20
2019-01-20T21:09:44.039Z,21.80
2019-01-20T21:15:19.240Z,19.07
2019-01-20T21:18:09.840Z,19.23
2019-01-20T21:23:44.181Z,20.20
2019-01-20T21:26:45.852Z,19.40
2019-01-20T21:29:19.320Z,20.30
2019-01-20T21:32:14.506Z,20.97
2019-01-20T21:35:17.026Z,20.77
2019-01-20T21:38:08.425Z,18.40
2019-01-20T21:41:00.861Z,20.27
2019-01-20T21:43:33.284Z,19.90
2019-01-20T21:54:37.529Z,19.50
2019-01-20T21:57:28.149Z,18.70
2019-01-20T22:00:21.101Z,19.27
2019-01-20T22:03:13.358Z,18.70
2019-01-20T22:09:06.255Z,19.80
2019-01-20T22:11:56.873Z,19.70
2019-01-20T22:14:47.482Z,19.67
2019-01-20T22:17:18.742Z,19.87
2019-01-20T22:20:28.494Z,20.77
2019-01-20T22:23:19.151Z,19.17
2019-01-20T22:28:53.631Z,18.93
2019-01-20T22:31:24.882Z,20.13
2019-01-20T22:37:22.591Z,20.63
2019-01-20T22:40:16.179Z,20.00
2019-01-20T22:45:34.652Z,19.80
2019-01-20T22:51:08.589Z,19.97
2019-01-20T22:53:59.234Z,19.30
2019-01-20T22:56:49.871Z,19.90
2019-01-20T23:02:23.761Z,21.50
2019-01-20T23:05:14.977Z,18.90
2019-01-20T23:07:46.671Z,19.40
2019-01-20T23:10:37.298Z,20.30
2019-01-20T23:13:28.008Z,22.17
2019-01-20T23:21:45.961Z,20.90
2019-01-20T23:27:11.790Z,19.97
2019-01-20T23:30:02.386Z,19.57
2019-01-20T23:33:04.452Z,19.97
2019-01-20T23:35:35.947Z,19.17
2019-01-20T23:44:10.987Z,20.43
2019-01-20T23:47:01.595Z,21.37
2019-01-20T23:50:30.498Z,20.67
2019-01-20T23:58:38.009Z,19.83
